This is the latest recevied weather packets stored in our database for station/object KI4BIY. If no packets are shown the sender has not sent any weather packets the latest 10 day(s).
| Time | Temp. | Humidity | Pressure | Rain* | Wind** | Luminosity | Snow |
|---|---|---|---|---|---|---|---|
| 1777431105 | 18.89° C | 99% | 1012 hPa | 38.35 mm | - | 0 W/m² | - |
| 1777430800 | 18.89° C | 99% | 1011.6 hPa | 77.47 mm | - | 0 W/m² | - |
| 1777430497 | 20° C | 99% | 1011 hPa | 126.49 mm | - | 0 W/m² | - |
| 1777430193 | 20° C | 99% | 1012.5 hPa | 65.53 mm | - | 0 W/m² | - |
| 1777429888 | 20° C | 99% | 1013.1 hPa | 16.76 mm | - | 0 W/m² | - |
| 1777429585 | 20° C | 99% | 1012.6 hPa | 28.7 mm | - | 0 W/m² | - |
| 1777429281 | 20° C | 99% | 1011.9 hPa | 22.86 mm | - | 0 W/m² | - |
| 1777428976 | 20° C | 99% | 1012.1 hPa | 13.72 mm | - | 0 W/m² | - |
| 1777428673 | 20° C | 99% | 1011.3 hPa | 13.72 mm | - | 0 W/m² | - |
| 1777428369 | 20° C | 99% | 1011.4 hPa | 11.94 mm | - | 0 W/m² | - |
| 1777428064 | 20° C | 99% | 1010.9 hPa | 13.72 mm | - | 0 W/m² | - |
| 1777427760 | 20° C | 99% | 1011.4 hPa | 9.65 mm | - | 0 W/m² | - |
| 1777427459 | 19.44° C | 99% | 1011.2 hPa | 3.05 mm | - | 0 W/m² | - |
| 1777427153 | 19.44° C | 99% | 1011.3 hPa | 1.27 mm | - | 0 W/m² | - |
| 1777426851 | 19.44° C | 99% | 1010.2 hPa | 4.32 mm | - | 0 W/m² | - |
| 1777426548 | 19.44° C | 99% | 1009.8 hPa | 6.1 mm | - | 0 W/m² | - |
| 1777426244 | 19.44° C | 99% | 1010 hPa | 6.1 mm | - | 0 W/m² | - |
| 1777425939 | 19.44° C | 99% | 1010.4 hPa | 21.59 mm | - | 0 W/m² | - |
| 1777425635 | 18.89° C | 99% | 1010.3 hPa | 31.75 mm | - | 0 W/m² | - |
| 1777425331 | 18.89° C | 99% | 1010.5 hPa | 23.37 mm | - | 0 W/m² | - |
| 1777425027 | 18.89° C | 99% | 1010.6 hPa | 14.99 mm | - | 0 W/m² | - |
| 1777424723 | 18.89° C | 99% | 1011.1 hPa | 13.72 mm | - | 0 W/m² | - |
| 1777424418 | 18.89° C | 99% | 1010.6 hPa | 7.87 mm | - | 0 W/m² | - |
| 1777424114 | 18.33° C | 99% | 1010.6 hPa | 1.78 mm | - | 0 W/m² | - |
| 1777423812 | 18.33° C | 99% | 1010.4 hPa | 1.78 mm | - | 0 W/m² | - |
* Rain latest hour (hover to see other rain measurements)
** Current wind speed in m/s (hover to see current wind gust speed)